Time;durP1;ratioP1;P1;durP2;ratioP2;P2;SDS_P1;SDS_P2;PMS_P1;PMS_P2;Temp;Humidity;BMP_temperature;BMP_pressure;BME280_temperature;BME280_humidity;BME280_pressure;Samples;Min_cycle;Max_cycle;Signal;HPM_P1;HPM_P2
2022/10/07 00:00:52;;;;;;;5.83;2.87;;;;;;;-144.22;100.00;60274.75;6085313;29;20312;-79
2022/10/07 00:03:54;;;;;;;3.17;2.57;;;;;;;-144.22;100.00;60274.75;6084662;29;20240;-79
2022/10/07 00:06:56;;;;;;;2.43;2.23;;;;;;;-144.22;100.00;60274.75;6083215;29;20325;-79
2022/10/07 00:09:58;;;;;;;4.20;2.63;;;;;;;-144.22;100.00;60274.75;6084193;29;20235;-79
2022/10/07 00:13:01;;;;;;;3.40;2.60;;;;;;;-144.22;100.00;60274.75;6084721;29;20237;-79
2022/10/07 00:16:12;;;;;;;4.90;2.70;;;;;;;-144.22;100.00;60274.75;6084128;29;20442;-79
2022/10/07 00:19:14;;;;;;;2.40;2.07;;;;;;;-144.22;100.00;60274.75;6062599;29;20234;-79
2022/10/07 00:22:16;;;;;;;3.50;2.43;;;;;;;-144.22;100.00;60274.75;6082998;29;20245;-79
2022/10/07 00:25:18;;;;;;;6.03;2.70;;;;;;;-144.22;100.00;60274.75;6084730;29;20233;-79
2022/10/07 00:28:22;;;;;;;3.93;2.50;;;;;;;-144.22;100.00;60274.75;6083085;29;20234;-79
2022/10/07 00:31:27;;;;;;;2.80;2.60;;;;;;;-144.22;100.00;60274.75;6065801;29;20215;-79
2022/10/07 00:34:29;;;;;;;4.47;2.70;;;;;;;-144.22;100.00;60274.75;6084153;29;20246;-79
2022/10/07 00:37:31;;;;;;;7.10;2.90;;;;;;;-144.22;100.00;60274.75;6068049;29;21045;-79
2022/10/07 00:40:33;;;;;;;4.10;2.50;;;;;;;-144.22;100.00;60274.75;6076251;29;20246;-79
2022/10/07 00:43:35;;;;;;;2.67;2.43;;;;;;;-144.22;100.00;60274.75;6059874;29;20714;-78
2022/10/07 00:46:39;;;;;;;6.07;2.73;;;;;;;-144.22;100.00;60274.75;6075145;29;20320;-79
2022/10/07 00:49:52;;;;;;;7.50;3.13;;;;;;;-144.22;100.00;60274.75;6083871;29;20612;-78
2022/10/07 00:52:58;;;;;;;4.13;2.60;;;;;;;-144.22;100.00;60274.75;6085221;29;20603;-79
2022/10/07 00:56:03;;;;;;;3.93;2.37;;;;;;;-144.22;100.00;60274.75;6083556;29;20240;-79
2022/10/07 00:59:05;;;;;;;6.43;2.53;;;;;;;-144.22;100.00;60274.75;6083140;29;20720;-79
2022/10/07 01:02:07;;;;;;;2.73;2.53;;;;;;;-144.22;100.00;60274.75;6083045;29;20233;-79
2022/10/07 01:05:13;;;;;;;3.83;2.20;;;;;;;-144.22;100.00;60274.75;6089234;29;20224;-79
2022/10/07 01:08:18;;;;;;;2.93;2.73;;;;;;;-144.22;100.00;60274.75;6087635;29;20333;-78
2022/10/07 01:11:35;;;;;;;3.07;2.77;;;;;;;-144.22;100.00;60274.75;6087962;29;20716;-78
2022/10/07 01:14:59;;;;;;;4.27;2.93;;;;;;;-144.22;100.00;60274.75;6088032;29;20239;-79
2022/10/07 01:18:05;;;;;;;4.17;2.97;;;;;;;-144.22;100.00;60274.75;6092820;29;20237;-79
2022/10/07 01:21:31;;;;;;;4.77;2.50;;;;;;;-144.22;100.00;60274.75;6088874;29;20745;-78
2022/10/07 01:24:47;;;;;;;6.97;2.83;;;;;;;-144.22;100.00;60274.75;6063313;29;20233;-79
2022/10/07 01:28:06;;;;;;;3.13;2.80;;;;;;;-144.22;100.00;60274.75;6085783;29;20233;-79
2022/10/07 01:31:15;;;;;;;5.33;2.63;;;;;;;-144.22;100.00;60274.75;6069879;29;20248;-78
2022/10/07 01:34:19;;;;;;;5.07;2.83;;;;;;;-144.22;100.00;60274.75;6070695;29;20320;-78
2022/10/07 01:37:24;;;;;;;4.37;2.50;;;;;;;-144.22;100.00;60274.75;6086721;29;20232;-79
2022/10/07 01:40:33;;;;;;;5.07;2.83;;;;;;;-144.22;100.00;60274.75;6087824;29;20271;-78
2022/10/07 01:43:37;;;;;;;5.77;2.73;;;;;;;-144.22;100.00;60274.75;6087491;29;20698;-78
2022/10/07 01:46:42;;;;;;;8.00;3.10;;;;;;;-144.22;100.00;60274.75;6072648;29;20578;-78
2022/10/07 01:49:44;;;;;;;2.53;2.33;;;;;;;-144.22;100.00;60274.75;6063972;29;20613;-78
2022/10/07 01:53:11;;;;;;;5.33;2.77;;;;;;;-144.22;100.00;60274.75;6068194;29;20295;-79
2022/10/07 01:56:37;;;;;;;4.83;2.90;;;;;;;-144.22;100.00;60274.75;6086684;29;20307;-78
2022/10/07 02:00:05;;;;;;;3.90;2.90;;;;;;;-144.22;100.00;60274.75;6071807;29;20240;-79
2022/10/07 02:03:39;;;;;;;3.90;3.13;;;;;;;-144.22;100.00;60274.75;6079416;29;20233;-79
2022/10/07 02:07:20;;;;;;;7.07;3.17;;;;;;;-144.22;100.00;60274.75;6088498;29;20740;-78
2022/10/07 02:10:49;;;;;;;3.70;3.20;;;;;;;-144.22;100.00;60274.75;6087351;29;20719;-79
2022/10/07 02:14:13;;;;;;;4.60;3.43;;;;;;;-144.22;100.00;60274.75;6085172;29;20243;-79
2022/10/07 02:17:19;;;;;;;5.90;3.33;;;;;;;-144.22;100.00;60274.75;6087431;29;20780;-79
2022/10/07 02:20:25;;;;;;;3.87;2.93;;;;;;;-144.22;100.00;60274.75;6070846;29;20255;-79
2022/10/07 02:23:28;;;;;;;4.17;3.30;;;;;;;-144.22;100.00;60274.75;6087025;29;20318;-79
2022/10/07 02:26:33;;;;;;;4.03;3.60;;;;;;;-144.22;100.00;60274.75;6085692;29;20323;-79
2022/10/07 02:29:38;;;;;;;4.87;2.97;;;;;;;-144.22;100.00;60274.75;6088234;29;20618;-79
2022/10/07 02:32:45;;;;;;;3.70;3.10;;;;;;;-144.22;100.00;60274.75;6100757;29;20239;-79
2022/10/07 02:35:51;;;;;;;6.60;3.33;;;;;;;-144.22;100.00;60274.75;6075659;29;20317;-78
2022/10/07 02:38:55;;;;;;;4.00;3.53;;;;;;;-144.22;100.00;60274.75;6085562;29;20220;-79
2022/10/07 02:42:15;;;;;;;4.13;3.20;;;;;;;-144.22;100.00;60274.75;6073990;29;20244;-79
2022/10/07 02:45:39;;;;;;;7.20;3.30;;;;;;;-144.22;100.00;60274.75;6085960;29;20246;-79
2022/10/07 02:48:57;;;;;;;6.70;3.83;;;;;;;-144.22;100.00;60274.75;6086554;29;20774;-79
2022/10/07 02:52:06;;;;;;;3.80;3.40;;;;;;;-144.22;100.00;60274.75;6085194;29;20248;-79
2022/10/07 02:55:14;;;;;;;5.13;3.60;;;;;;;-144.22;100.00;60274.75;6087405;29;20248;-78
2022/10/07 02:58:20;;;;;;;4.50;3.80;;;;;;;-144.22;100.00;60274.75;6083975;29;20246;-78
2022/10/07 03:01:28;;;;;;;4.93;3.73;;;;;;;-144.22;100.00;60274.75;6086406;29;20322;-78
2022/10/07 03:04:31;;;;;;;4.43;3.90;;;;;;;-144.22;100.00;60274.75;6085023;29;20738;-79
2022/10/07 03:07:35;;;;;;;5.00;3.77;;;;;;;-144.22;100.00;60274.75;6085024;29;20316;-79
2022/10/07 03:10:38;;;;;;;6.57;4.10;;;;;;;-144.22;100.00;60274.75;6084082;29;20242;-79
2022/10/07 03:13:42;;;;;;;5.87;3.37;;;;;;;-144.22;100.00;60274.75;6084085;29;20232;-78
2022/10/07 03:16:44;;;;;;;4.73;3.60;;;;;;;-144.22;100.00;60274.75;6085543;29;20220;-77
2022/10/07 03:19:47;;;;;;;4.77;4.13;;;;;;;-144.22;100.00;60274.75;6086374;29;20235;-79
2022/10/07 03:22:49;;;;;;;5.07;4.10;;;;;;;-144.22;100.00;60274.75;6084620;29;20251;-79
2022/10/07 03:25:54;;;;;;;6.73;3.93;;;;;;;-144.22;100.00;60274.75;6083654;29;20255;-79
2022/10/07 03:28:59;;;;;;;5.50;4.20;;;;;;;-144.22;100.00;60274.75;6079674;29;20236;-79
2022/10/07 03:32:02;;;;;;;4.83;3.83;;;;;;;-144.22;100.00;60274.75;6069067;29;20251;-79
2022/10/07 03:35:06;;;;;;;4.40;3.60;;;;;;;-144.22;100.00;60274.75;6077503;29;20241;-79
2022/10/07 03:38:09;;;;;;;4.60;4.00;;;;;;;-144.22;100.00;60274.75;6077875;29;20265;-79
2022/10/07 03:41:12;;;;;;;4.57;3.57;;;;;;;-144.22;100.00;60274.75;6068350;29;20386;-79
2022/10/07 03:44:15;;;;;;;7.33;4.40;;;;;;;-144.22;100.00;60274.75;6084377;29;20276;-79
2022/10/07 03:47:20;;;;;;;4.70;4.00;;;;;;;-144.22;100.00;60274.75;6084653;29;20232;-79
2022/10/07 03:50:24;;;;;;;4.40;3.53;;;;;;;-144.22;100.00;60274.75;6084212;29;20228;-79
2022/10/07 03:53:28;;;;;;;5.87;3.57;;;;;;;-144.22;100.00;60274.75;6084106;29;20312;-78
2022/10/07 03:56:32;;;;;;;4.20;3.80;;;;;;;-144.22;100.00;60274.75;6085516;29;20232;-79
2022/10/07 03:59:34;;;;;;;5.23;4.60;;;;;;;-144.22;100.00;60274.75;6084488;29;20596;-79
2022/10/07 04:02:36;;;;;;;6.83;4.70;;;;;;;-144.22;100.00;60274.75;6075815;29;20236;-79
2022/10/07 04:05:39;;;;;;;4.60;4.00;;;;;;;-144.22;100.00;60274.75;6076904;29;20240;-79
2022/10/07 04:08:43;;;;;;;7.30;4.00;;;;;;;-144.22;100.00;60274.75;6067102;29;20263;-79
2022/10/07 04:11:46;;;;;;;6.23;5.00;;;;;;;-144.22;100.00;60274.75;6085218;29;20252;-79
2022/10/07 04:14:49;;;;;;;6.67;4.37;;;;;;;-144.22;100.00;60274.75;6085717;29;20239;-78
2022/10/07 04:17:57;;;;;;;8.70;4.40;;;;;;;-144.22;100.00;60274.75;6060757;29;20323;-77
2022/10/07 04:21:01;;;;;;;7.67;4.60;;;;;;;-144.22;100.00;60274.75;6074731;29;20323;-79
2022/10/07 04:24:06;;;;;;;7.40;4.63;;;;;;;-144.22;100.00;60274.75;6081391;29;20224;-79
2022/10/07 04:27:10;;;;;;;5.67;4.63;;;;;;;-144.22;100.00;60274.75;6067656;29;20363;-79
2022/10/07 04:30:38;;;;;;;6.87;5.90;;;;;;;-144.22;100.00;60274.75;6073389;29;20235;-79
2022/10/07 04:33:41;;;;;;;10.07;6.40;;;;;;;-144.22;100.00;60274.75;6083426;29;20232;-79
2022/10/07 04:36:45;;;;;;;6.43;5.73;;;;;;;-144.22;100.00;60274.75;6084109;29;20229;-79
2022/10/07 04:39:49;;;;;;;7.23;5.83;;;;;;;-144.22;100.00;60274.75;6071269;29;20726;-79
2022/10/07 04:43:19;;;;;;;7.60;5.70;;;;;;;-144.22;100.00;60274.75;6088360;29;20236;-79
2022/10/07 04:46:27;;;;;;;9.73;6.43;;;;;;;-144.22;100.00;60274.75;6088759;29;20253;-79
2022/10/07 04:49:41;;;;;;;6.40;5.70;;;;;;;-144.22;100.00;60274.75;6087650;29;20363;-78
2022/10/07 04:52:45;;;;;;;6.57;5.50;;;;;;;-144.22;100.00;60274.75;6087649;29;20679;-80
2022/10/07 04:55:50;;;;;;;11.13;7.43;;;;;;;-144.22;100.00;60274.75;6088088;29;20237;-79
2022/10/07 04:58:54;;;;;;;7.57;6.47;;;;;;;-144.22;100.00;60274.75;6088235;29;20267;-79
2022/10/07 05:01:58;;;;;;;7.67;6.77;;;;;;;-144.22;100.00;60274.75;6063845;29;20264;-79
2022/10/07 05:05:02;;;;;;;8.20;7.37;;;;;;;-144.22;100.00;60274.75;6083026;29;20240;-79
2022/10/07 05:08:06;;;;;;;11.07;7.30;;;;;;;-144.22;100.00;60274.75;6088112;29;20310;-79
2022/10/07 05:11:09;;;;;;;8.50;6.90;;;;;;;-144.22;100.00;60274.75;6087255;29;20224;-79
2022/10/07 05:14:20;;;;;;;8.90;7.17;;;;;;;-144.22;100.00;60274.75;6088867;29;20240;-79
2022/10/07 05:17:24;;;;;;;9.97;6.83;;;;;;;-144.22;100.00;60274.75;6091076;29;20227;-79
2022/10/07 05:20:26;;;;;;;8.67;6.93;;;;;;;-144.22;100.00;60274.75;6073646;29;20231;-79
2022/10/07 05:23:30;;;;;;;13.57;8.43;;;;;;;-144.22;100.00;60274.75;6087037;29;20706;-77
2022/10/07 05:26:35;;;;;;;10.80;7.20;;;;;;;-144.22;100.00;60274.75;6086894;29;20255;-79
2022/10/07 05:29:39;;;;;;;8.20;6.97;;;;;;;-144.22;100.00;60274.75;6077250;29;20275;-79
2022/10/07 05:32:41;;;;;;;9.80;7.63;;;;;;;-144.22;100.00;60274.75;6058198;29;20264;-78
2022/10/07 05:35:47;;;;;;;8.93;7.77;;;;;;;-144.22;100.00;60274.75;6078229;29;20239;-79
2022/10/07 05:38:49;;;;;;;9.17;7.73;;;;;;;-144.22;100.00;60274.75;6086210;29;20309;-79
2022/10/07 05:41:51;;;;;;;13.80;8.70;;;;;;;-144.22;100.00;60274.75;6063637;29;20228;-79
2022/10/07 05:44:58;;;;;;;7.03;6.33;;;;;;;-144.22;100.00;60274.75;6069454;29;20252;-79
2022/10/07 05:48:00;;;;;;;7.33;6.63;;;;;;;-144.22;100.00;60274.75;6085597;29;20319;-78
2022/10/07 05:51:03;;;;;;;11.03;7.97;;;;;;;-144.22;100.00;60274.75;6085880;29;20212;-79
2022/10/07 05:54:05;;;;;;;11.03;8.13;;;;;;;-144.22;100.00;60274.75;6087279;29;20672;-79
2022/10/07 05:57:12;;;;;;;8.53;6.33;;;;;;;-144.22;100.00;60274.75;6086664;29;20223;-79
2022/10/07 06:00:14;;;;;;;8.10;7.30;;;;;;;-144.22;100.00;60274.75;6084138;29;20223;-79
2022/10/07 06:03:24;;;;;;;7.83;6.90;;;;;;;-144.22;100.00;60274.75;6085116;29;20242;-80
2022/10/07 06:06:29;;;;;;;7.93;7.00;;;;;;;-144.22;100.00;60274.75;6087222;29;20323;-79
2022/10/07 06:13:08;;;;;;;9.03;6.63;;;;;;;-144.22;100.00;60274.75;6087409;29;20735;-79
2022/10/07 06:16:13;;;;;;;8.73;7.27;;;;;;;-144.22;100.00;60274.75;6086532;29;20255;-79
2022/10/07 06:19:21;;;;;;;7.47;6.20;;;;;;;-144.22;100.00;60274.75;6083021;29;20249;-79
2022/10/07 06:22:26;;;;;;;7.40;6.13;;;;;;;-144.22;100.00;60274.75;6086803;29;20233;-80
2022/10/07 06:25:29;;;;;;;10.67;7.17;;;;;;;-144.22;100.00;60274.75;6085300;29;20232;-80
2022/10/07 06:28:35;;;;;;;10.20;8.17;;;;;;;-144.22;100.00;60274.75;6067090;29;20669;-79
2022/10/07 06:31:38;;;;;;;12.53;7.73;;;;;;;-144.22;100.00;60274.75;6084549;29;20239;-79
2022/10/07 06:34:40;;;;;;;7.43;6.40;;;;;;;-144.22;100.00;60274.75;6084501;29;20229;-78
2022/10/07 06:37:43;;;;;;;6.97;6.30;;;;;;;-144.22;100.00;60274.75;6084831;29;20240;-77
2022/10/07 06:40:57;;;;;;;10.90;7.50;;;;;;;-144.22;100.00;60274.75;6078649;29;20318;-78
2022/10/07 06:44:01;;;;;;;9.63;7.93;;;;;;;-144.22;100.00;60274.75;6085583;29;20603;-79
2022/10/07 06:47:03;;;;;;;8.27;7.43;;;;;;;-144.22;100.00;60274.75;6085145;29;20262;-79
2022/10/07 06:50:12;;;;;;;10.73;8.00;;;;;;;-144.22;100.00;60274.75;6089600;29;20228;-78
2022/10/07 06:53:15;;;;;;;7.47;6.13;;;;;;;-144.22;100.00;60274.75;6085989;29;20719;-79
2022/10/07 06:56:19;;;;;;;8.17;6.43;;;;;;;-144.22;100.00;60274.75;6070227;29;20231;-79
2022/10/07 06:59:21;;;;;;;8.63;6.67;;;;;;;-144.22;100.00;60274.75;6077265;29;20227;-79
2022/10/07 07:02:32;;;;;;;9.40;6.60;;;;;;;-144.22;100.00;60274.75;6062671;29;20241;-79
2022/10/07 07:05:38;;;;;;;8.50;6.20;;;;;;;-144.22;100.00;60274.75;6063789;29;20340;-79
2022/10/07 07:08:49;;;;;;;8.37;6.40;;;;;;;-144.22;100.00;60274.75;6069485;29;20237;-78
2022/10/07 07:11:52;;;;;;;8.43;6.20;;;;;;;-144.22;100.00;60274.75;6079765;29;20233;-79
2022/10/07 07:15:07;;;;;;;9.47;6.40;;;;;;;-144.22;100.00;60274.75;6085232;29;20349;-79
2022/10/07 07:18:10;;;;;;;7.00;6.07;;;;;;;-144.22;100.00;60274.75;6077224;29;20672;-79
2022/10/07 07:21:13;;;;;;;7.90;7.10;;;;;;;-144.22;100.00;60274.75;6085833;29;20218;-79
2022/10/07 07:24:15;;;;;;;9.47;8.40;;;;;;;-144.22;100.00;60274.75;6083572;29;20625;-79
2022/10/07 07:27:18;;;;;;;7.70;6.77;;;;;;;-144.22;100.00;60274.75;6084658;29;20210;-79
2022/10/07 07:30:22;;;;;;;8.87;6.07;;;;;;;-144.22;100.00;60274.75;6075400;29;20752;-79
2022/10/07 07:33:27;;;;;;;7.77;6.90;;;;;;;-144.22;100.00;60274.75;6076212;29;20833;-79
2022/10/07 07:36:30;;;;;;;11.87;6.43;;;;;;;-144.22;100.00;60274.75;6076208;29;20240;-79
2022/10/07 07:39:32;;;;;;;7.57;6.07;;;;;;;-144.22;100.00;60274.75;6058717;29;20243;-80
2022/10/07 07:42:47;;;;;;;9.20;6.97;;;;;;;-144.22;100.00;60274.75;6083831;29;20340;-79
2022/10/07 07:45:50;;;;;;;6.87;6.23;;;;;;;-144.22;100.00;60274.75;6065698;29;20228;-79
2022/10/07 07:48:54;;;;;;;7.53;6.23;;;;;;;-144.22;100.00;60274.75;6084693;29;20652;-79
2022/10/07 07:51:57;;;;;;;7.10;5.90;;;;;;;-144.22;100.00;60274.75;6083466;29;20233;-79
2022/10/07 07:55:04;;;;;;;8.60;6.20;;;;;;;-144.22;100.00;60274.75;6083289;29;20239;-79
2022/10/07 07:58:07;;;;;;;6.57;5.37;;;;;;;-144.22;100.00;60274.75;6083446;29;20224;-79
2022/10/07 08:01:17;;;;;;;6.87;5.90;;;;;;;-144.22;100.00;60274.75;6075368;29;20295;-79
2022/10/07 08:04:20;;;;;;;5.03;4.53;;;;;;;-144.22;100.00;60274.75;6075833;29;20253;-79
2022/10/07 08:07:25;;;;;;;5.37;4.63;;;;;;;-144.22;100.00;60274.75;6075425;29;20236;-79
2022/10/07 08:10:27;;;;;;;6.87;4.77;;;;;;;-144.22;100.00;60274.75;6067704;29;20243;-79
2022/10/07 08:13:31;;;;;;;7.70;5.27;;;;;;;-144.22;100.00;60274.75;6069896;29;20255;-79
2022/10/07 08:16:35;;;;;;;6.20;4.97;;;;;;;-144.22;100.00;60274.75;6087320;29;20242;-79
2022/10/07 08:19:39;;;;;;;7.47;5.60;;;;;;;-144.22;100.00;60274.75;6072260;29;20823;-78
2022/10/07 08:22:44;;;;;;;4.73;4.20;;;;;;;-144.22;100.00;60274.75;6088488;29;20702;-78
2022/10/07 08:25:52;;;;;;;9.00;7.63;;;;;;;-144.22;100.00;60274.75;6088172;29;20234;-78
2022/10/07 08:28:57;;;;;;;7.97;5.80;;;;;;;-144.22;100.00;60274.75;6065863;29;20228;-79
2022/10/07 08:31:59;;;;;;;9.10;4.43;;;;;;;16.24;100.00;60274.75;6078269;29;20225;-79
2022/10/07 08:35:02;;;;;;;8.83;5.73;;;;;;;-144.22;100.00;60274.75;6080846;29;20225;-79
2022/10/07 08:38:04;;;;;;;10.10;7.70;;;;;;;-144.22;100.00;60274.75;6080286;29;20236;-79
2022/10/07 08:41:24;;;;;;;9.33;6.47;;;;;;;-144.22;100.00;60274.75;6080445;29;20228;-78
2022/10/07 08:44:33;;;;;;;12.30;6.60;;;;;;;-144.22;100.00;60274.75;6075261;29;20236;-78
2022/10/07 08:47:43;;;;;;;8.77;5.87;;;;;;;-144.22;100.00;60274.75;6089614;29;20286;-78
2022/10/07 08:50:55;;;;;;;8.40;6.47;;;;;;;-144.22;100.00;60274.75;6071619;29;20275;-79
2022/10/07 08:54:00;;;;;;;8.63;6.17;;;;;;;-144.22;100.00;60274.75;6072694;29;20283;-78
2022/10/07 08:57:14;;;;;;;9.70;6.80;;;;;;;19.15;100.00;60274.75;6087314;29;20240;-78
2022/10/07 09:00:21;;;;;;;8.30;6.23;;;;;;;-144.22;100.00;60274.75;6087762;29;20223;-78
2022/10/07 09:03:54;;;;;;;9.40;6.43;;;;;;;-144.22;100.00;60274.75;6088850;29;20231;-78
2022/10/07 09:07:07;;;;;;;8.13;6.50;;;;;;;19.15;100.00;60274.75;6086246;29;20247;-78
2022/10/07 09:10:30;;;;;;;6.17;5.07;;;;;;;19.15;100.00;60274.75;6087166;29;20591;-78
2022/10/07 09:13:36;;;;;;;16.27;7.57;;;;;;;-144.22;100.00;60274.75;6064835;29;20236;-78
2022/10/07 09:16:48;;;;;;;8.50;6.97;;;;;;;18.77;100.00;60274.75;6086134;29;20750;-78
2022/10/07 09:19:57;;;;;;;10.33;8.17;;;;;;;-144.22;100.00;60274.75;6063959;29;20323;-78
2022/10/07 09:23:01;;;;;;;8.73;7.47;;;;;;;-144.22;100.00;60274.75;6078265;29;20236;-78
2022/10/07 09:26:12;;;;;;;11.67;7.07;;;;;;;-144.22;100.00;60274.75;6087958;29;20606;-78
2022/10/07 09:29:19;;;;;;;8.37;7.57;;;;;;;-144.22;100.00;60274.75;6086222;29;20248;-77
2022/10/07 09:32:21;;;;;;;10.17;7.87;;;;;;;-144.22;100.00;60274.75;6087159;29;20329;-78
2022/10/07 09:35:28;;;;;;;12.20;8.17;;;;;;;-144.22;100.00;60274.75;6086385;29;20220;-77
2022/10/07 09:38:36;;;;;;;15.33;7.83;;;;;;;19.53;100.00;60274.75;6088113;29;20232;-77
2022/10/07 09:41:38;;;;;;;11.63;8.17;;;;;;;-144.22;100.00;60274.75;6087824;29;20247;-77
2022/10/07 09:44:40;;;;;;;6.67;6.07;;;;;;;-144.22;100.00;60274.75;6077534;29;20239;-78
2022/10/07 09:47:43;;;;;;;6.23;5.40;;;;;;;-144.22;100.00;60274.75;6064702;29;20719;-78
2022/10/07 09:50:46;;;;;;;7.40;5.67;;;;;;;20.42;100.00;60274.75;6064363;29;20233;-77
2022/10/07 09:54:03;;;;;;;7.17;5.80;;;;;;;-144.22;100.00;60274.75;6078092;29;20666;-78
2022/10/07 09:57:21;;;;;;;8.00;5.43;;;;;;;-144.22;100.00;60274.75;6064826;29;20233;-77
2022/10/07 10:00:25;;;;;;;7.33;5.60;;;;;;;-144.22;100.00;60274.75;6064104;29;20239;-77
2022/10/07 10:03:33;;;;;;;5.50;4.20;;;;;;;-144.22;100.00;60274.75;6064338;29;20232;-78
2022/10/07 10:06:35;;;;;;;8.10;4.20;;;;;;;21.59;100.00;60274.75;6064537;29;20689;-78
2022/10/07 10:09:37;;;;;;;4.90;3.67;;;;;;;-144.22;100.00;60274.75;6078742;29;20240;-77
2022/10/07 10:12:50;;;;;;;7.63;5.93;;;;;;;-144.22;100.00;60274.75;6062980;29;20251;-77
2022/10/07 10:15:52;;;;;;;9.93;5.90;;;;;;;-144.22;100.00;60274.75;6062284;29;20229;-77
2022/10/07 10:19:02;;;;;;;6.20;5.00;;;;;;;-144.22;100.00;60274.75;6063947;29;20621;-77
2022/10/07 10:22:21;;;;;;;6.37;5.27;;;;;;;-144.22;100.00;60274.75;6062122;29;20705;-77
2022/10/07 10:29:42;;;;;;;8.77;5.20;;;;;;;-144.22;100.00;60274.75;6066312;29;20572;-78
2022/10/07 10:33:14;;;;;;;7.03;4.93;;;;;;;21.11;100.00;60274.75;6066109;29;20733;-77
2022/10/07 10:36:22;;;;;;;7.03;4.70;;;;;;;-144.22;100.00;60274.75;6073363;29;20384;-78
2022/10/07 10:39:47;;;;;;;7.23;4.33;;;;;;;-144.22;100.00;60274.75;6063294;29;20236;-77
2022/10/07 10:43:26;;;;;;;4.70;3.90;;;;;;;-144.22;100.00;60274.75;6066001;29;20236;-77
2022/10/07 10:46:51;;;;;;;4.77;3.70;;;;;;;32.13;100.00;60274.75;6085141;29;20228;-77
2022/10/07 10:50:26;;;;;;;6.60;3.83;;;;;;;-144.22;100.00;60274.75;6084027;29;20236;-77
2022/10/07 10:53:57;;;;;;;7.10;4.73;;;;;;;-144.22;100.00;60274.75;6044989;29;20588;-77
2022/10/07 10:57:30;;;;;;;6.63;4.30;;;;;;;-144.22;100.00;60274.75;6068977;29;20267;-77
2022/10/07 11:01:03;;;;;;;5.53;4.33;;;;;;;-144.22;100.00;60274.75;6071562;29;20302;-77
2022/10/07 11:04:32;;;;;;;7.90;4.80;;;;;;;-144.22;100.00;60274.75;6084118;29;20250;-77
2022/10/07 11:07:54;;;;;;;7.83;4.87;;;;;;;-144.22;100.00;60274.75;6061488;29;20350;-77
2022/10/07 11:11:11;;;;;;;10.37;4.87;;;;;;;-144.22;100.00;60274.75;6070266;29;20243;-77
2022/10/07 11:14:19;;;;;;;6.10;4.30;;;;;;;63.28;100.00;60274.75;6085607;29;20228;-77
2022/10/07 11:17:29;;;;;;;4.57;4.03;;;;;;;-144.22;100.00;60274.75;6084214;29;20708;-77
2022/10/07 11:20:37;;;;;;;7.27;4.70;;;;;;;-144.22;100.00;60274.75;6086429;29;20236;-77
2022/10/07 11:24:00;;;;;;;5.60;4.20;;;;;;;-144.22;100.00;60274.75;6084386;29;20247;-77
2022/10/07 11:27:32;;;;;;;5.00;4.50;;;;;;;-144.22;100.00;60274.75;6085038;29;20319;-77
2022/10/07 11:30:49;;;;;;;5.70;4.40;;;;;;;-144.22;100.00;60274.75;6070433;29;20242;-77
2022/10/07 11:33:59;;;;;;;7.67;4.90;;;;;;;-144.22;100.00;60274.75;6084715;29;20772;-77
2022/10/07 11:37:28;;;;;;;8.87;4.70;;;;;;;26.93;100.00;60274.75;6083808;29;20739;-77
2022/10/07 11:40:33;;;;;;;5.33;4.13;;;;;;;-144.22;100.00;60274.75;6074939;29;20783;-78
2022/10/07 11:43:48;;;;;;;6.27;4.87;;;;;;;-144.22;100.00;60274.75;6085534;29;20708;-77
2022/10/07 11:46:52;;;;;;;6.23;4.40;;;;;;;-144.22;100.00;60274.75;6084063;29;20734;-77
2022/10/07 11:50:03;;;;;;;6.93;4.83;;;;;;;-144.22;100.00;60274.75;6084727;29;20232;-77
2022/10/07 11:53:10;;;;;;;7.47;4.50;;;;;;;-144.22;100.00;60274.75;6084332;29;20555;-77
2022/10/07 11:56:19;;;;;;;6.57;5.10;;;;;;;-144.22;100.00;60274.75;6067658;29;20232;-77
2022/10/07 11:59:40;;;;;;;6.73;5.10;;;;;;;-144.22;100.00;60274.75;6085236;29;20240;-78
2022/10/07 12:02:44;;;;;;;5.97;4.67;;;;;;;-144.22;100.00;60274.75;6060414;29;20717;-78
2022/10/07 12:05:48;;;;;;;7.20;5.60;;;;;;;-144.22;100.00;60274.75;6079611;29;20227;-76
2022/10/07 12:08:51;;;;;;;9.27;5.53;;;;;;;-144.22;100.00;60274.75;6083571;29;20738;-78
2022/10/07 12:11:55;;;;;;;5.83;4.90;;;;;;;-144.22;100.00;60274.75;6082706;29;20238;-78
2022/10/07 12:15:00;;;;;;;5.00;4.50;;;;;;;-144.22;100.00;60274.75;6083603;29;20738;-77
2022/10/07 12:18:06;;;;;;;5.93;5.03;;;;;;;-144.22;100.00;60274.75;6077776;29;20529;-77
2022/10/07 12:21:11;;;;;;;7.87;4.93;;;;;;;-144.22;100.00;60274.75;6083609;29;20203;-78
2022/10/07 12:24:14;;;;;;;5.10;4.60;;;;;;;-144.22;100.00;60274.75;6083570;29;20243;-78
2022/10/07 12:27:22;;;;;;;5.30;4.40;;;;;;;-144.22;100.00;60274.75;6083774;29;20594;-77
2022/10/07 12:30:38;;;;;;;5.90;4.15;;;;;;;-144.22;100.00;60274.75;6068598;29;20232;-77
2022/10/07 12:33:43;;;;;;;4.88;4.35;;;;;;;-144.22;100.00;60274.75;6081721;29;20232;-77
2022/10/07 12:36:45;;;;;;;5.25;4.22;;;;;;;-144.22;100.00;60274.75;6086032;29;20298;-78
2022/10/07 12:39:47;;;;;;;4.45;4.05;;;;;;;-144.22;100.00;60274.75;6077862;29;20239;-77
2022/10/07 12:42:59;;;;;;;6.00;3.70;;;;;;;-144.22;100.00;60274.75;6076045;29;20248;-77
2022/10/07 12:46:10;;;;;;;5.43;4.22;;;;;;;104.84;100.00;60274.75;6075621;29;20720;-77
2022/10/07 12:49:40;;;;;;;7.30;3.65;;;;;;;-144.22;100.00;60274.75;6067961;29;20232;-78
2022/10/07 12:52:51;;;;;;;4.40;3.20;;;;;;;26.93;100.00;60274.75;6083120;29;20762;-78
2022/10/07 12:55:55;;;;;;;5.15;3.20;;;;;;;-144.22;100.00;60274.75;6082058;29;20228;-77
2022/10/07 12:59:48;;;;;;;4.88;3.30;;;;;;;-144.22;100.00;60274.75;6085061;29;20232;-77
2022/10/07 13:03:12;;;;;;;8.05;4.05;;;;;;;-144.22;100.00;60274.75;5987496;29;20639;-77
2022/10/07 13:06:22;;;;;;;5.30;3.20;;;;;;;-144.22;100.00;60274.75;6087090;29;20236;-78
2022/10/07 13:10:06;;;;;;;5.05;3.25;;;;;;;30.83;100.00;60274.75;6088516;29;20232;-78
2022/10/07 13:13:19;;;;;;;4.32;3.30;;;;;;;-144.22;100.00;60274.75;6087097;29;20261;-77
2022/10/07 13:16:25;;;;;;;6.47;3.63;;;;;;;31.70;100.00;60274.75;6088208;29;20239;-77
2022/10/07 13:19:34;;;;;;;4.45;3.20;;;;;;;33.42;100.00;60274.75;6088951;29;20242;-77
2022/10/07 13:22:38;;;;;;;3.35;3.00;;;;;;;32.72;100.00;60274.75;6086687;29;20711;-77
2022/10/07 13:25:56;;;;;;;4.90;3.47;;;;;;;-144.22;100.00;60274.75;6078928;29;20236;-78
2022/10/07 13:29:00;;;;;;;9.60;3.40;;;;;;;-144.22;100.00;60274.75;6081269;29;20739;-77
2022/10/07 13:32:02;;;;;;;7.38;2.80;;;;;;;-144.22;100.00;60274.75;6073108;29;20732;-77
2022/10/07 13:35:28;;;;;;;3.97;2.95;;;;;;;-144.22;100.00;60274.75;6079135;29;20239;-77
2022/10/07 13:38:30;;;;;;;10.85;3.20;;;;;;;-144.22;100.00;60274.75;6077516;29;20251;-77
2022/10/07 13:41:35;;;;;;;4.43;3.10;;;;;;;34.76;100.00;60274.75;6087528;29;20254;-78
2022/10/07 13:44:45;;;;;;;5.07;2.97;;;;;;;-144.22;100.00;60274.75;6086412;29;20251;-78
2022/10/07 13:47:47;;;;;;;6.97;3.42;;;;;;;34.08;26.22;98290.53;6087086;29;20239;-77
2022/10/07 13:50:53;;;;;;;6.15;3.63;;;;;;;-144.22;100.00;60274.75;6087855;29;20238;-77
2022/10/07 13:53:58;;;;;;;5.75;2.90;;;;;;;30.12;100.00;60274.75;6086489;29;20232;-77
2022/10/07 13:57:02;;;;;;;4.85;3.20;;;;;;;30.11;100.00;81817.94;6086463;29;20611;-78
2022/10/07 14:00:04;;;;;;;5.03;3.42;;;;;;;-144.22;100.00;60274.75;6086953;29;20243;-78
2022/10/07 14:03:15;;;;;;;6.63;3.95;;;;;;;-144.22;100.00;60274.75;6091822;29;20780;-77
2022/10/07 14:06:36;;;;;;;4.30;3.50;;;;;;;-144.22;100.00;60274.75;6069780;29;20216;-77
2022/10/07 14:09:57;;;;;;;5.68;3.22;;;;;;;-144.22;100.00;60274.75;6087057;29;20868;-78
2022/10/07 14:13:02;;;;;;;6.63;2.90;;;;;;;-144.22;100.00;60274.75;6086770;29;20244;-78
2022/10/07 14:16:04;;;;;;;3.55;3.05;;;;;;;-144.22;100.00;60274.75;6087048;29;20243;-77
2022/10/07 14:19:15;;;;;;;3.50;3.20;;;;;;;-144.22;100.00;60274.75;6098224;29;20749;-78
2022/10/07 14:22:39;;;;;;;4.07;3.40;;;;;;;-144.22;100.00;60274.75;6085844;29;20236;-78
2022/10/07 14:26:02;;;;;;;4.63;3.47;;;;;;;-144.22;100.00;60274.75;6086437;29;20239;-77